Map

Track Data

SID SEASON NUMBER BASIN SUBBASIN NAME ISO_TIME NATURE LAT LON WMO_WIND WMO_PRES WMO_AGENCY TRACK_TYPE DIST2LAND LANDFALL IFLAG USA_AGENCY USA_ATCF_ID USA_LAT USA_LON USA_RECORD USA_STATUS USA_WIND USA_PRES USA_SSHS USA_R34_NE USA_R34_SE USA_R34_SW USA_R34_NW USA_R50_NE USA_R50_SE USA_R50_SW USA_R50_NW USA_R64_NE USA_R64_SE USA_R64_SW USA_R64_NW USA_POCI USA_ROCI USA_RMW USA_EYE TOKYO_LAT TOKYO_LON TOKYO_GRADE TOKYO_WIND TOKYO_PRES TOKYO_R50_DIR TOKYO_R50_LONG TOKYO_R50_SHORT TOKYO_R30_DIR TOKYO_R30_LONG TOKYO_R30_SHORT TOKYO_LAND CMA_LAT CMA_LON CMA_CAT CMA_WIND CMA_PRES HKO_LAT HKO_LON HKO_CAT HKO_WIND HKO_PRES NEWDELHI_LAT NEWDELHI_LON NEWDELHI_GRADE NEWDELHI_WIND NEWDELHI_PRES NEWDELHI_CI NEWDELHI_DP NEWDELHI_POCI REUNION_LAT REUNION_LON REUNION_TYPE REUNION_WIND REUNION_PRES REUNION_TNUM REUNION_CI REUNION_RMW REUNION_R34_NE REUNION_R34_SE REUNION_R34_SW REUNION_R34_NW REUNION_R50_NE REUNION_R50_SE REUNION_R50_SW REUNION_R50_NW REUNION_R64_NE REUNION_R64_SE REUNION_R64_SW REUNION_R64_NW BOM_LAT BOM_LON BOM_TYPE BOM_WIND BOM_PRES BOM_TNUM BOM_CI BOM_RMW BOM_R34_NE BOM_R34_SE BOM_R34_SW BOM_R34_NW BOM_R50_NE BOM_R50_SE BOM_R50_SW BOM_R50_NW BOM_R64_NE BOM_R64_SE BOM_R64_SW BOM_R64_NW BOM_ROCI BOM_POCI BOM_EYE BOM_POS_METHOD BOM_PRES_METHOD NADI_LAT NADI_LON NADI_CAT NADI_WIND NADI_PRES WELLINGTON_LAT WELLINGTON_LON WELLINGTON_WIND WELLINGTON_PRES DS824_LAT DS824_LON DS824_STAGE DS824_WIND DS824_PRES TD9636_LAT TD9636_LON TD9636_STAGE TD9636_WIND TD9636_PRES TD9635_LAT TD9635_LON TD9635_WIND TD9635_PRES TD9635_ROCI NEUMANN_LAT NEUMANN_LON NEUMANN_CLASS NEUMANN_WIND NEUMANN_PRES MLC_LAT MLC_LON MLC_CLASS MLC_WIND MLC_PRES USA_GUST BOM_GUST BOM_GUST_PER REUNION_GUST REUNION_GUST_PER USA_SEAHGT USA_SEARAD_NE USA_SEARAD_SE USA_SEARAD_SW USA_SEARAD_NW STORM_SPEED STORM_DIR
1935305N23146 1935 64 WP MM NOT_NAMED 1935-10-31 21:00:00 NR 23.2000 146.300 main 1445 1425 __________O___ -1 23.2000 146.300 4 20 56
1935305N23146 1935 64 WP MM NOT_NAMED 1935-11-01 00:00:00 NR 23.7580 147.193 main 1425 1415 __________P___ -1 23.7580 147.193 4 20 55
1935305N23146 1935 64 WP MM NOT_NAMED 1935-11-01 03:00:00 NR 24.3407 148.082 main 1422 1403 __________P___ -1 24.3407 148.082 4 20 53
1935305N23146 1935 64 WP MM NOT_NAMED 1935-11-01 06:00:00 NR 24.9779 148.955 main 1405 1388 __________P___ -1 24.9779 148.955 4 21 49
1935305N23146 1935 64 WP MM NOT_NAMED 1935-11-01 09:00:00 NR 25.7000 149.800 main 1388 1372 __________O___ -1 25.7000 149.800 4 22 44
1935305N23146 1935 64 WP MM NOT_NAMED 1935-11-01 12:00:00 NR 26.5214 150.615 main 1372 1357 __________P___ -1 26.5214 150.615 4 22 41
1935305N23146 1935 64 WP MM NOT_NAMED 1935-11-01 15:00:00 NR 27.3908 151.419 main 1356 1352 __________P___ -1 27.3908 151.419 4 23 40
1935305N23146 1935 64 WP MM NOT_NAMED 1935-11-01 18:00:00 NR 28.2400 152.240 main 1352 1352 __________P___ -1 28.2400 152.240 4 22 43
1935305N23146 1935 64 WP MM NOT_NAMED 1935-11-01 21:00:00 NR 29.0000 153.100 main 1364 1364 __________O___ -1 29.0000 153.100 4 21 54
1935305N23146 1935 64 WP MM NOT_NAMED 1935-11-02 00:00:00 NR 29.4458 154.157 main 1427 1421 __________P___ -1 29.4458 154.157 4 20 66
1935305N23146 1935 64 WP MM NOT_NAMED 1935-11-02 03:00:00 NR 29.8139 155.231 main 1486 1486 __________P___ -1 29.8139 155.231 4 20 66
1935305N23146 1935 64 WP MM NOT_NAMED 1935-11-02 06:00:00 NR 30.2493 156.214 main 1549 1549 __________P___ -1 30.2493 156.214 4 19 55
1935305N23146 1935 64 WP MM NOT_NAMED 1935-11-02 09:00:00 NR 30.9000 157.000 main 1584 1572 __________O___ -1 30.9000 157.000 4 21 29
1935305N23146 1935 64 WP MM NOT_NAMED 1935-11-02 12:00:00 NR 32.0744 157.401 main 1569 1513 __________P___ -1 32.0744 157.401 4 26 11
1935305N23146 1935 64 WP MM NOT_NAMED 1935-11-02 15:00:00 NR 33.4626 157.610 main 1504 1382 __________P___ -1 33.4626 157.610 4 28 6
1935305N23146 1935 64 WP MM NOT_NAMED 1935-11-02 18:00:00 NR 34.8698 157.762 main 1372 1273 __________P___ -1 34.8698 157.762 4 27 7
1935305N23146 1935 64 WP MM NOT_NAMED 1935-11-02 21:00:00 NR 36.1000 158.000 main 1263 1198 __________O___ -1 36.1000 158.000 4 22 14
1935305N23146 1935 64 WP MM NOT_NAMED 1935-11-03 00:00:00 NR 37.0054 158.438 main 1198 1173 __________P___ -1 37.0054 158.438 4 17 29
1935305N23146 1935 64 WP MM NOT_NAMED 1935-11-03 03:00:00 NR 37.6296 159.056 main 1181 1168 __________P___ -1 37.6296 159.056 4 15 45
1935305N23146 1935 64 WP MM NOT_NAMED 1935-11-03 06:00:00 NR 38.0640 159.796 main 1174 1174 __________P___ -1 38.0640 159.796 4 14 58
1935305N23146 1935 64 WP MM NOT_NAMED 1935-11-03 09:00:00 NR 38.4000 160.600 main 1193 __________O___ -1 38.4000 160.600 4 14 62

Digital Typhoon Data and Search

About IBTrACS Database

This database is a web-friendly format of International Best Track Archive for Climate Stewardship (IBTrACS), a global best track data archive curated by NOAA dating back to 1842.

Updated: 2021-12-08